createdAt,value
2023-07-18T00:00:14.193Z,0.30
2023-07-18T00:00:28.801Z,1.60
2023-07-18T00:00:41.734Z,1.25
2023-07-18T00:00:53.760Z,0.65
2023-07-18T00:01:05.849Z,0.60
2023-07-18T00:01:18.094Z,0.47
2023-07-18T00:01:30.640Z,0.30
2023-07-18T00:01:43.058Z,0.32
2023-07-18T00:01:57.214Z,0.35
2023-07-18T00:02:09.340Z,0.60
2023-07-18T00:02:21.517Z,0.63
2023-07-18T00:02:35.049Z,0.40
2023-07-18T00:02:47.248Z,1.02
2023-07-18T00:03:00.095Z,1.10
2023-07-18T00:03:14.028Z,1.10
2023-07-18T00:03:26.135Z,0.40
2023-07-18T00:03:38.138Z,0.50
2023-07-18T00:03:50.146Z,0.45
2023-07-18T00:04:02.180Z,0.70
2023-07-18T00:04:14.404Z,0.70
2023-07-18T00:04:28.634Z,0.63
2023-07-18T00:04:40.906Z,1.35
2023-07-18T00:04:53.560Z,2.50
2023-07-18T00:05:06.088Z,2.17
2023-07-18T00:05:18.861Z,1.50
2023-07-18T00:05:31.488Z,0.40
2023-07-18T00:05:43.462Z,0.40
2023-07-18T00:05:56.110Z,0.90
2023-07-18T00:06:09.316Z,0.90
2023-07-18T00:06:22.328Z,1.10
2023-07-18T00:06:34.864Z,1.58
2023-07-18T00:06:46.986Z,1.60
2023-07-18T00:06:59.483Z,0.50
2023-07-18T00:07:11.443Z,1.38
2023-07-18T00:07:23.426Z,1.30
2023-07-18T00:07:35.558Z,0.38
2023-07-18T00:07:47.549Z,0.40
2023-07-18T00:07:59.505Z,0.50
2023-07-18T00:08:11.480Z,0.52
2023-07-18T00:08:23.552Z,0.55
2023-07-18T00:08:35.727Z,1.45
2023-07-18T00:08:47.684Z,1.52
2023-07-18T00:08:59.699Z,0.85
2023-07-18T00:09:12.384Z,0.88
2023-07-18T00:09:24.313Z,0.85
2023-07-18T00:09:39.421Z,0.55
2023-07-18T00:09:51.658Z,0.55
2023-07-18T00:10:04.476Z,0.50
2023-07-18T00:10:20.314Z,0.50
2023-07-18T00:10:32.397Z,0.40
2023-07-18T00:10:44.374Z,0.40
2023-07-18T00:10:56.345Z,0.40
2023-07-18T00:11:08.292Z,0.40
2023-07-18T00:11:22.844Z,0.30
2023-07-18T00:11:34.841Z,0.50
2023-07-18T00:11:47.457Z,0.95
2023-07-18T00:12:00.585Z,1.20
2023-07-18T00:12:12.680Z,1.33
2023-07-18T00:12:24.701Z,0.95
2023-07-18T00:12:37.370Z,0.70
2023-07-18T00:12:50.380Z,0.45
2023-07-18T00:13:04.011Z,0.45
2023-07-18T00:13:15.968Z,0.63
2023-07-18T00:13:27.899Z,0.70
2023-07-18T00:13:39.874Z,0.82
2023-07-18T00:13:51.894Z,0.98
2023-07-18T00:14:03.934Z,0.95
2023-07-18T00:14:16.364Z,0.85
2023-07-18T00:14:30.848Z,1.17
2023-07-18T00:14:42.900Z,1.00
2023-07-18T00:14:55.014Z,1.05
2023-07-18T00:15:08.283Z,0.52
2023-07-18T00:15:20.275Z,0.88
2023-07-18T00:15:32.988Z,0.95
2023-07-18T00:15:45.952Z,0.85
2023-07-18T00:15:57.988Z,0.90
2023-07-18T00:16:10.272Z,1.70
2023-07-18T00:16:22.299Z,1.65
2023-07-18T00:16:34.569Z,1.33
2023-07-18T00:16:46.717Z,1.10
2023-07-18T00:16:58.734Z,1.20
2023-07-18T00:17:10.719Z,1.00
2023-07-18T00:17:22.746Z,0.70
2023-07-18T00:17:35.250Z,0.50
2023-07-18T00:17:47.441Z,0.63
2023-07-18T00:18:00.363Z,0.80
2023-07-18T00:18:12.374Z,1.08
2023-07-18T00:18:24.427Z,0.90
2023-07-18T00:18:36.380Z,1.13
2023-07-18T00:18:49.027Z,1.17
2023-07-18T00:19:01.022Z,1.10
2023-07-18T00:19:13.432Z,0.50
2023-07-18T00:19:25.648Z,0.50
2023-07-18T00:19:38.640Z,0.50
2023-07-18T00:19:51.282Z,0.43
2023-07-18T00:20:13.584Z,0.55
2023-07-18T00:20:26.863Z,1.20
2023-07-18T00:20:42.450Z,0.95
2023-07-18T00:20:54.433Z,0.70
2023-07-18T00:21:06.650Z,0.70
2023-07-18T00:21:18.849Z,0.55
2023-07-18T00:21:31.123Z,0.57
2023-07-18T00:21:43.097Z,0.80
2023-07-18T00:21:55.671Z,0.80
2023-07-18T00:22:08.874Z,0.70
2023-07-18T00:22:21.140Z,0.95
2023-07-18T00:22:33.144Z,0.90
2023-07-18T00:22:49.454Z,1.02
2023-07-18T00:23:01.719Z,1.10
2023-07-18T00:23:13.852Z,0.70
2023-07-18T00:23:25.864Z,1.00
2023-07-18T00:23:37.816Z,0.90
2023-07-18T00:23:50.692Z,0.82
2023-07-18T00:24:03.507Z,0.77
2023-07-18T00:24:16.135Z,1.02
2023-07-18T00:24:30.016Z,1.55
2023-07-18T00:24:41.999Z,1.50
2023-07-18T00:24:54.003Z,1.00
2023-07-18T00:25:06.628Z,0.80
2023-07-18T00:25:20.735Z,0.38
2023-07-18T00:25:33.081Z,0.30
2023-07-18T00:25:45.123Z,0.40
2023-07-18T00:25:57.250Z,0.37
2023-07-18T00:26:09.742Z,0.90
2023-07-18T00:26:21.998Z,1.20
2023-07-18T00:26:34.570Z,1.23
2023-07-18T00:26:46.622Z,1.20
2023-07-18T00:26:58.629Z,0.73
2023-07-18T00:27:10.610Z,0.50
2023-07-18T00:27:22.609Z,0.30
2023-07-18T00:27:34.888Z,0.38
2023-07-18T00:27:48.345Z,2.55
2023-07-18T00:28:00.340Z,2.85
2023-07-18T00:28:12.281Z,1.00
2023-07-18T00:28:24.297Z,0.70
2023-07-18T00:28:36.778Z,0.47
2023-07-18T00:28:48.742Z,0.40
2023-07-18T00:29:00.790Z,0.30
2023-07-18T00:29:12.752Z,0.35
2023-07-18T00:29:24.776Z,0.30
2023-07-18T00:29:36.726Z,0.70
2023-07-18T00:29:48.653Z,1.17
2023-07-18T00:30:00.619Z,1.33
2023-07-18T00:30:16.211Z,0.40
2023-07-18T00:30:28.312Z,0.60
2023-07-18T00:30:40.294Z,1.23
2023-07-18T00:30:52.478Z,1.25
2023-07-18T00:31:04.530Z,1.30
2023-07-18T00:31:16.739Z,0.80
2023-07-18T00:31:28.949Z,1.07
2023-07-18T00:31:41.316Z,1.25
2023-07-18T00:31:53.446Z,1.30
2023-07-18T00:32:05.854Z,0.45
2023-07-18T00:32:17.881Z,0.88
2023-07-18T00:32:29.975Z,1.60
2023-07-18T00:32:43.402Z,1.55
2023-07-18T00:32:56.434Z,0.45
2023-07-18T00:33:08.547Z,0.40
2023-07-18T00:33:20.664Z,0.52
2023-07-18T00:33:32.647Z,0.50
2023-07-18T00:33:44.630Z,0.47
2023-07-18T00:33:56.614Z,0.40
2023-07-18T00:34:08.565Z,0.50
2023-07-18T00:34:20.512Z,0.40
2023-07-18T00:34:32.425Z,0.40
2023-07-18T00:34:45.376Z,0.40
2023-07-18T00:34:57.492Z,0.70
2023-07-18T00:35:10.054Z,0.82
2023-07-18T00:35:22.188Z,1.00
2023-07-18T00:35:35.570Z,1.33
2023-07-18T00:35:47.606Z,1.23
2023-07-18T00:35:59.647Z,0.60
2023-07-18T00:36:11.699Z,0.70
2023-07-18T00:36:23.677Z,0.70
2023-07-18T00:36:35.624Z,0.60
2023-07-18T00:36:47.545Z,0.32
2023-07-18T00:36:59.518Z,0.35
2023-07-18T00:37:11.751Z,0.50
2023-07-18T00:37:24.333Z,0.40
2023-07-18T00:37:36.304Z,0.30
2023-07-18T00:37:48.270Z,0.30
2023-07-18T00:38:00.903Z,0.35
2023-07-18T00:38:12.886Z,0.40
2023-07-18T00:38:24.889Z,0.60
2023-07-18T00:38:37.011Z,0.60
2023-07-18T00:38:50.102Z,0.60
2023-07-18T00:39:02.293Z,0.60
2023-07-18T00:39:14.352Z,0.60
2023-07-18T00:39:26.338Z,1.83
2023-07-18T00:39:38.309Z,1.77
2023-07-18T00:39:50.282Z,0.77
2023-07-18T00:40:03.797Z,0.77
2023-07-18T00:40:16.489Z,0.55
2023-07-18T00:40:28.510Z,0.47
2023-07-18T00:40:42.067Z,0.40
2023-07-18T00:40:54.181Z,0.32
2023-07-18T00:41:06.782Z,0.38
2023-07-18T00:41:19.043Z,0.50
2023-07-18T00:41:31.208Z,0.40
2023-07-18T00:41:43.635Z,0.32
2023-07-18T00:41:55.690Z,0.30
2023-07-18T00:42:07.847Z,0.60
2023-07-18T00:42:20.424Z,0.60
2023-07-18T00:42:32.474Z,0.60
2023-07-18T00:42:46.503Z,0.50
2023-07-18T00:42:58.605Z,0.63
2023-07-18T00:43:17.017Z,0.90
2023-07-18T00:43:33.860Z,0.60
2023-07-18T00:43:45.840Z,0.85
2023-07-18T00:43:57.813Z,0.90
2023-07-18T00:44:10.514Z,0.73
2023-07-18T00:44:22.561Z,0.40
2023-07-18T00:44:34.648Z,0.40
2023-07-18T00:44:50.435Z,2.60
2023-07-18T00:45:02.513Z,2.70
2023-07-18T00:45:14.989Z,0.68
2023-07-18T00:45:27.510Z,0.50
2023-07-18T00:45:40.128Z,0.75
2023-07-18T00:45:52.218Z,0.80
2023-07-18T00:46:06.086Z,0.90
2023-07-18T00:46:19.239Z,0.77
2023-07-18T00:46:32.272Z,0.60
2023-07-18T00:46:44.665Z,0.40
2023-07-18T00:46:56.731Z,0.40
2023-07-18T00:47:09.024Z,0.30
2023-07-18T00:47:23.260Z,0.40
2023-07-18T00:47:39.039Z,0.40
2023-07-18T00:47:52.842Z,1.00
2023-07-18T00:48:05.338Z,1.50
2023-07-18T00:48:18.657Z,1.27
2023-07-18T00:48:33.460Z,0.50
2023-07-18T00:48:45.731Z,1.10
2023-07-18T00:48:58.493Z,0.93
2023-07-18T00:49:10.759Z,0.65
2023-07-18T00:49:23.727Z,0.60
2023-07-18T00:49:36.424Z,0.43
2023-07-18T00:49:48.858Z,0.40
2023-07-18T00:50:00.973Z,0.40
2023-07-18T00:50:17.730Z,0.30
2023-07-18T00:50:29.801Z,0.40
2023-07-18T00:50:42.307Z,0.40
2023-07-18T00:50:54.700Z,0.43
2023-07-18T00:51:08.315Z,1.00
2023-07-18T00:51:20.710Z,0.88
2023-07-18T00:51:33.186Z,0.43
2023-07-18T00:51:45.531Z,0.40
2023-07-18T00:51:57.712Z,0.90
2023-07-18T00:52:10.136Z,0.90
2023-07-18T00:52:23.082Z,0.70
2023-07-18T00:52:37.359Z,0.30
2023-07-18T00:52:51.447Z,0.40
2023-07-18T00:53:03.649Z,0.45
2023-07-18T00:53:15.754Z,0.43
2023-07-18T00:53:28.687Z,0.40
2023-07-18T00:53:41.419Z,0.35
2023-07-18T00:53:54.128Z,0.30
2023-07-18T00:54:07.863Z,0.30
2023-07-18T00:54:22.281Z,0.98
2023-07-18T00:54:35.004Z,1.10
2023-07-18T00:54:47.065Z,1.08
2023-07-18T00:54:59.041Z,0.52
2023-07-18T00:55:12.281Z,0.60
2023-07-18T00:55:24.409Z,0.93
2023-07-18T00:55:37.516Z,0.80
2023-07-18T00:55:50.952Z,0.73
2023-07-18T00:56:03.177Z,0.40
2023-07-18T00:56:15.296Z,0.43
2023-07-18T00:56:27.861Z,0.50
2023-07-18T00:56:39.835Z,0.50
2023-07-18T00:56:51.946Z,0.50
2023-07-18T00:57:04.170Z,0.47
2023-07-18T00:57:16.191Z,0.70
2023-07-18T00:57:28.160Z,0.60
2023-07-18T00:57:41.277Z,0.60
2023-07-18T00:57:54.825Z,0.40
2023-07-18T00:58:06.841Z,0.50
2023-07-18T00:58:18.830Z,0.50
2023-07-18T00:58:31.386Z,0.52
2023-07-18T00:58:44.074Z,0.50
2023-07-18T00:58:56.324Z,0.70
2023-07-18T00:59:09.836Z,2.22
2023-07-18T00:59:24.149Z,3.10
2023-07-18T00:59:38.221Z,2.40
2023-07-18T00:59:50.595Z,0.75
2023-07-18T01:00:03.457Z,0.60
2023-07-18T01:00:17.960Z,0.90
2023-07-18T01:00:30.075Z,1.17
2023-07-18T01:00:42.510Z,0.88
2023-07-18T01:00:55.580Z,1.00
2023-07-18T01:01:08.178Z,0.57
2023-07-18T01:01:20.668Z,0.40
2023-07-18T01:01:33.943Z,0.38
2023-07-18T01:01:46.173Z,0.50
2023-07-18T01:01:58.480Z,1.48
2023-07-18T01:02:10.575Z,1.70
2023-07-18T01:02:22.894Z,1.80
2023-07-18T01:02:35.033Z,0.70
2023-07-18T01:02:47.516Z,0.65
2023-07-18T01:02:59.719Z,0.70
2023-07-18T01:03:12.055Z,0.68
2023-07-18T01:03:24.201Z,0.40
2023-07-18T01:03:39.836Z,0.30
2023-07-18T01:03:52.015Z,0.30
2023-07-18T01:04:04.183Z,0.32
2023-07-18T01:04:16.199Z,0.38
2023-07-18T01:04:28.187Z,0.60
2023-07-18T01:04:42.277Z,0.70
2023-07-18T01:04:54.254Z,0.80
2023-07-18T01:05:07.923Z,2.03
2023-07-18T01:05:20.652Z,1.75
2023-07-18T01:05:34.821Z,0.40
2023-07-18T01:05:46.871Z,0.32
2023-07-18T01:05:59.124Z,0.60
2023-07-18T01:06:12.696Z,0.63
2023-07-18T01:06:26.009Z,0.47
2023-07-18T01:06:38.284Z,0.40
2023-07-18T01:06:51.045Z,0.35
2023-07-18T01:07:03.258Z,0.47
2023-07-18T01:07:16.834Z,0.50
2023-07-18T01:07:28.964Z,0.50
2023-07-18T01:07:41.029Z,0.52
2023-07-18T01:07:53.086Z,0.40
2023-07-18T01:08:05.711Z,0.60
2023-07-18T01:08:17.696Z,0.60
2023-07-18T01:08:29.827Z,0.40
2023-07-18T01:08:41.861Z,0.55
2023-07-18T01:08:53.992Z,0.80
2023-07-18T01:09:06.450Z,1.05
2023-07-18T01:09:18.432Z,1.00
2023-07-18T01:09:31.532Z,0.93
2023-07-18T01:09:45.934Z,1.40
2023-07-18T01:10:27.053Z,1.38
2023-07-18T01:10:39.441Z,0.80
2023-07-18T01:10:51.468Z,0.95
2023-07-18T01:11:05.496Z,0.90
2023-07-18T01:11:17.759Z,0.82
2023-07-18T01:11:30.045Z,0.40
2023-07-18T01:11:42.584Z,0.40
2023-07-18T01:11:56.469Z,0.40
2023-07-18T01:12:08.919Z,0.40
2023-07-18T01:12:20.905Z,0.30
2023-07-18T01:12:32.928Z,0.40
2023-07-18T01:12:45.965Z,0.43
2023-07-18T01:12:59.845Z,0.50
2023-07-18T01:13:13.028Z,0.40
2023-07-18T01:13:25.087Z,0.40
2023-07-18T01:13:37.414Z,0.50
2023-07-18T01:13:49.400Z,0.47
2023-07-18T01:14:01.360Z,0.57
2023-07-18T01:14:13.352Z,0.60
2023-07-18T01:14:26.523Z,0.63
2023-07-18T01:14:38.469Z,1.00
2023-07-18T01:14:50.491Z,1.00
2023-07-18T01:15:02.580Z,0.50
2023-07-18T01:15:14.695Z,0.50
2023-07-18T01:15:30.884Z,0.40
2023-07-18T01:15:44.339Z,0.30
2023-07-18T01:15:56.372Z,0.30
2023-07-18T01:16:08.780Z,0.60
2023-07-18T01:16:20.773Z,0.68
2023-07-18T01:16:32.824Z,0.32
2023-07-18T01:16:44.800Z,0.95
2023-07-18T01:16:56.922Z,2.88
2023-07-18T01:17:10.655Z,2.75
2023-07-18T01:17:22.818Z,1.48
2023-07-18T01:17:35.104Z,1.55
2023-07-18T01:17:48.263Z,0.60
2023-07-18T01:18:03.449Z,0.50
2023-07-18T01:18:15.897Z,0.60
2023-07-18T01:18:27.905Z,0.55
2023-07-18T01:18:41.482Z,0.50
2023-07-18T01:18:56.491Z,0.60
2023-07-18T01:19:08.774Z,1.20
2023-07-18T01:19:21.045Z,1.73
2023-07-18T01:19:33.059Z,1.13
2023-07-18T01:19:45.068Z,0.80
2023-07-18T01:19:57.421Z,0.80
2023-07-18T01:20:14.192Z,0.85
2023-07-18T01:20:29.033Z,0.60
2023-07-18T01:20:45.702Z,0.45
2023-07-18T01:20:58.282Z,1.10
2023-07-18T01:21:18.385Z,1.15
2023-07-18T01:21:30.968Z,0.60
2023-07-18T01:21:43.356Z,0.50
2023-07-18T01:21:55.357Z,0.47
2023-07-18T01:22:09.614Z,0.60
2023-07-18T01:22:21.759Z,0.80
2023-07-18T01:22:33.877Z,0.70
2023-07-18T01:22:47.534Z,0.73
2023-07-18T01:23:01.790Z,0.65
2023-07-18T01:23:15.139Z,0.85
2023-07-18T01:23:28.160Z,0.63
2023-07-18T01:23:40.181Z,1.10
2023-07-18T01:23:52.136Z,1.00
2023-07-18T01:24:04.470Z,0.82
2023-07-18T01:24:16.418Z,0.65
2023-07-18T01:24:28.425Z,0.80
2023-07-18T01:24:40.415Z,0.85
2023-07-18T01:24:52.439Z,0.60
2023-07-18T01:25:04.795Z,0.60
2023-07-18T01:25:17.907Z,0.50
2023-07-18T01:25:31.118Z,0.40
2023-07-18T01:25:43.662Z,0.32
2023-07-18T01:25:56.879Z,0.45
2023-07-18T01:26:08.887Z,0.70
2023-07-18T01:26:20.826Z,0.85
2023-07-18T01:26:32.860Z,0.77
2023-07-18T01:26:44.922Z,0.77
2023-07-18T01:26:58.073Z,0.85
2023-07-18T01:27:10.168Z,0.70
2023-07-18T01:27:22.134Z,0.60
2023-07-18T01:27:38.049Z,0.50
2023-07-18T01:27:52.004Z,0.50
2023-07-18T01:28:04.569Z,0.60
2023-07-18T01:28:16.558Z,0.68
2023-07-18T01:28:28.761Z,0.60
2023-07-18T01:28:41.241Z,0.77
2023-07-18T01:28:53.252Z,1.40
2023-07-18T01:29:05.365Z,1.35
2023-07-18T01:29:17.355Z,0.95
2023-07-18T01:29:29.379Z,0.63
2023-07-18T01:29:41.391Z,0.88
2023-07-18T01:29:53.833Z,0.82
2023-07-18T01:30:06.771Z,0.70
2023-07-18T01:30:21.658Z,0.93
2023-07-18T01:30:33.639Z,1.10
2023-07-18T01:30:46.138Z,1.40
2023-07-18T01:30:58.144Z,1.20
2023-07-18T01:31:10.246Z,1.10
2023-07-18T01:31:22.524Z,1.05
2023-07-18T01:31:34.639Z,1.08
2023-07-18T01:31:46.727Z,1.60
2023-07-18T01:31:58.758Z,1.60
2023-07-18T01:32:10.756Z,0.60
2023-07-18T01:32:22.829Z,1.10
2023-07-18T01:32:37.490Z,0.88
2023-07-18T01:32:50.382Z,0.75
2023-07-18T01:33:02.558Z,1.05
2023-07-18T01:33:14.531Z,0.70
2023-07-18T01:33:28.335Z,0.75
2023-07-18T01:33:43.413Z,0.80
2023-07-18T01:33:55.435Z,1.20
2023-07-18T01:34:07.486Z,1.00
2023-07-18T01:34:19.496Z,0.60
2023-07-18T01:34:31.435Z,0.60
2023-07-18T01:34:43.367Z,0.73
2023-07-18T01:34:55.302Z,0.90
2023-07-18T01:35:09.232Z,0.75
2023-07-18T01:35:24.385Z,0.63
2023-07-18T01:35:36.361Z,0.57
2023-07-18T01:35:48.325Z,0.50
2023-07-18T01:36:01.023Z,0.50
2023-07-18T01:36:13.023Z,0.50
2023-07-18T01:36:29.546Z,0.57
2023-07-18T01:36:41.858Z,1.58
2023-07-18T01:36:53.967Z,1.77
2023-07-18T01:37:06.191Z,0.90
2023-07-18T01:37:18.143Z,1.00
2023-07-18T01:37:30.095Z,0.85
2023-07-18T01:37:46.039Z,0.80
2023-07-18T01:37:58.615Z,0.82
2023-07-18T01:38:10.751Z,0.68
2023-07-18T01:38:22.753Z,0.80
2023-07-18T01:38:36.473Z,0.90
2023-07-18T01:38:48.484Z,0.98
2023-07-18T01:39:00.698Z,0.90
2023-07-18T01:39:12.720Z,1.10
2023-07-18T01:39:24.874Z,0.77
2023-07-18T01:39:36.851Z,1.10
2023-07-18T01:39:48.829Z,1.00
2023-07-18T01:40:01.192Z,0.95
2023-07-18T01:40:16.690Z,1.10
2023-07-18T01:40:28.780Z,0.90
2023-07-18T01:40:40.911Z,0.50
2023-07-18T01:40:52.963Z,0.60
2023-07-18T01:41:05.010Z,0.65
2023-07-18T01:41:17.177Z,0.70
2023-07-18T01:41:30.848Z,0.65
2023-07-18T01:41:42.831Z,0.68
2023-07-18T01:41:54.898Z,0.60
2023-07-18T01:42:07.303Z,0.50
2023-07-18T01:42:20.296Z,0.45
2023-07-18T01:42:33.631Z,1.52
2023-07-18T01:42:45.602Z,4.03
2023-07-18T01:42:58.761Z,4.20
2023-07-18T01:43:10.777Z,0.90
2023-07-18T01:43:23.652Z,0.52
2023-07-18T01:43:38.544Z,0.90
2023-07-18T01:43:50.496Z,0.85
2023-07-18T01:44:02.431Z,0.70
2023-07-18T01:44:14.409Z,0.67
2023-07-18T01:44:26.492Z,1.02
2023-07-18T01:44:38.558Z,0.93
2023-07-18T01:44:50.598Z,0.93
2023-07-18T01:45:04.292Z,0.85
2023-07-18T01:45:16.486Z,0.82
2023-07-18T01:45:32.054Z,0.40
2023-07-18T01:45:44.032Z,0.40
2023-07-18T01:46:00.372Z,0.40
2023-07-18T01:46:12.496Z,0.40
2023-07-18T01:46:25.926Z,0.40
2023-07-18T01:46:37.926Z,0.50
2023-07-18T01:46:49.953Z,0.60
2023-07-18T01:47:03.764Z,0.47
2023-07-18T01:47:15.868Z,0.50
2023-07-18T01:47:28.056Z,0.70
2023-07-18T01:47:41.325Z,0.65
2023-07-18T01:47:53.764Z,0.40
2023-07-18T01:48:05.993Z,0.68
2023-07-18T01:48:19.240Z,1.30
2023-07-18T01:48:31.302Z,1.23
2023-07-18T01:48:43.349Z,0.90
2023-07-18T01:48:55.296Z,0.50
2023-07-18T01:49:07.387Z,0.50
2023-07-18T01:49:19.344Z,0.65
2023-07-18T01:49:32.266Z,0.77
2023-07-18T01:49:44.260Z,0.70
2023-07-18T01:49:56.197Z,0.68
2023-07-18T01:50:08.789Z,0.70
2023-07-18T01:50:20.911Z,0.70
2023-07-18T01:50:33.439Z,1.70
2023-07-18T01:50:45.447Z,1.48
2023-07-18T01:50:58.087Z,1.45
2023-07-18T01:51:10.119Z,0.40
2023-07-18T01:51:22.456Z,0.45
2023-07-18T01:51:34.862Z,0.60
2023-07-18T01:51:46.848Z,0.80
2023-07-18T01:52:01.246Z,0.68
2023-07-18T01:52:13.257Z,0.45
2023-07-18T01:52:27.102Z,0.55
2023-07-18T01:52:39.331Z,0.85
2023-07-18T01:52:51.366Z,0.80
2023-07-18T01:53:03.378Z,0.60
2023-07-18T01:53:15.340Z,0.50
2023-07-18T01:53:27.536Z,0.50
2023-07-18T01:53:39.522Z,0.73
2023-07-18T01:53:51.537Z,0.77
2023-07-18T01:54:05.096Z,0.60
2023-07-18T01:54:17.039Z,0.50
2023-07-18T01:54:30.260Z,0.50
2023-07-18T01:54:42.272Z,0.50
2023-07-18T01:54:59.127Z,0.40
2023-07-18T01:55:11.273Z,0.47
2023-07-18T01:55:23.238Z,0.73
2023-07-18T01:55:35.219Z,1.40
2023-07-18T01:55:47.208Z,1.10
2023-07-18T01:55:59.488Z,0.68
2023-07-18T01:56:11.570Z,0.60
2023-07-18T01:56:23.602Z,0.45
2023-07-18T01:56:35.555Z,0.70
2023-07-18T01:56:47.499Z,0.80
2023-07-18T01:56:59.488Z,0.65
2023-07-18T01:57:11.423Z,0.50
2023-07-18T01:57:24.321Z,0.50
2023-07-18T01:57:38.996Z,0.43
2023-07-18T01:57:51.249Z,2.20
2023-07-18T01:58:03.253Z,3.10
2023-07-18T01:58:15.196Z,2.17
2023-07-18T01:58:27.177Z,0.77
2023-07-18T01:58:39.164Z,0.85
2023-07-18T01:58:51.237Z,1.23
2023-07-18T01:59:03.205Z,1.48
2023-07-18T01:59:15.211Z,0.63
2023-07-18T01:59:27.251Z,1.08
2023-07-18T01:59:39.421Z,1.02
2023-07-18T01:59:51.433Z,0.93
2023-07-18T02:00:04.847Z,0.93
2023-07-18T02:00:22.772Z,1.00
2023-07-18T02:00:36.510Z,0.50
2023-07-18T02:00:48.801Z,0.35
2023-07-18T02:01:04.288Z,0.50
2023-07-18T02:01:16.534Z,0.60
2023-07-18T02:01:30.040Z,0.45
2023-07-18T02:01:42.078Z,0.40
2023-07-18T02:01:54.037Z,0.50
2023-07-18T02:02:07.559Z,0.52
2023-07-18T02:02:20.012Z,0.50
2023-07-18T02:02:32.177Z,1.00
2023-07-18T02:02:46.791Z,0.90
2023-07-18T02:02:58.980Z,0.60
2023-07-18T02:03:13.583Z,0.70
2023-07-18T02:03:25.695Z,0.60
2023-07-18T02:03:38.295Z,1.00
2023-07-18T02:03:50.292Z,0.82
2023-07-18T02:04:02.274Z,0.77
2023-07-18T02:04:15.089Z,0.40
2023-07-18T02:04:27.131Z,0.40
2023-07-18T02:04:39.502Z,0.40
2023-07-18T02:04:51.440Z,0.40
2023-07-18T02:05:05.193Z,0.40
2023-07-18T02:05:20.377Z,0.40
2023-07-18T02:05:33.455Z,1.23
2023-07-18T02:05:45.428Z,1.23
2023-07-18T02:05:57.418Z,0.73
2023-07-18T02:06:11.379Z,0.75
2023-07-18T02:06:26.057Z,0.43
2023-07-18T02:06:38.001Z,0.90
2023-07-18T02:06:49.957Z,1.42
2023-07-18T02:07:01.947Z,1.77
2023-07-18T02:07:13.927Z,0.93
2023-07-18T02:07:26.840Z,0.73
2023-07-18T02:07:38.827Z,0.40
2023-07-18T02:07:51.357Z,0.30
2023-07-18T02:08:03.484Z,0.45
2023-07-18T02:08:15.477Z,0.80
2023-07-18T02:08:27.416Z,1.08
2023-07-18T02:08:39.410Z,1.08
2023-07-18T02:08:52.370Z,1.00
2023-07-18T02:09:05.333Z,0.95
2023-07-18T02:09:17.319Z,1.05
2023-07-18T02:09:29.299Z,0.90
2023-07-18T02:09:41.264Z,0.50
2023-07-18T02:09:53.200Z,0.35
2023-07-18T02:10:06.228Z,0.35
2023-07-18T02:10:22.643Z,0.40
2023-07-18T02:10:34.728Z,0.73
2023-07-18T02:10:46.740Z,0.90
2023-07-18T02:10:58.700Z,0.90
2023-07-18T02:11:10.636Z,0.70
2023-07-18T02:11:22.692Z,0.50
2023-07-18T02:11:34.676Z,0.40
2023-07-18T02:11:46.676Z,0.75
2023-07-18T02:11:58.625Z,0.73
2023-07-18T02:12:10.852Z,0.85
2023-07-18T02:12:22.922Z,0.45
2023-07-18T02:12:34.904Z,0.50
2023-07-18T02:12:51.519Z,0.70
2023-07-18T02:13:04.201Z,0.88
2023-07-18T02:13:16.301Z,1.13
2023-07-18T02:13:28.342Z,1.42
2023-07-18T02:13:40.301Z,2.00
2023-07-18T02:13:52.289Z,2.10
2023-07-18T02:14:05.126Z,2.38
2023-07-18T02:14:20.827Z,3.20
2023-07-18T02:14:32.795Z,1.58
2023-07-18T02:14:44.749Z,0.73
2023-07-18T02:14:56.739Z,0.65
2023-07-18T02:15:09.495Z,0.50
2023-07-18T02:15:22.592Z,0.40
2023-07-18T02:15:34.689Z,0.70
2023-07-18T02:15:46.851Z,2.40
2023-07-18T02:15:58.815Z,2.15
2023-07-18T02:16:10.736Z,1.90
2023-07-18T02:16:22.751Z,0.40
2023-07-18T02:16:34.744Z,0.40
2023-07-18T02:16:46.991Z,0.43
2023-07-18T02:16:59.750Z,0.40
2023-07-18T02:17:11.861Z,0.45
2023-07-18T02:17:24.007Z,0.43
2023-07-18T02:17:36.110Z,0.63
2023-07-18T02:17:48.534Z,0.60
2023-07-18T02:18:00.599Z,0.57
2023-07-18T02:18:12.720Z,0.40
2023-07-18T02:18:24.750Z,0.40
2023-07-18T02:18:36.844Z,0.57
2023-07-18T02:18:48.916Z,0.50
2023-07-18T02:19:02.186Z,0.45
2023-07-18T02:19:14.291Z,0.30
2023-07-18T02:19:26.247Z,0.22
2023-07-18T02:19:38.241Z,0.32
2023-07-18T02:19:50.187Z,0.40
2023-07-18T02:20:07.412Z,0.50
2023-07-18T02:20:19.633Z,0.40
2023-07-18T02:20:31.726Z,0.30
2023-07-18T02:20:43.779Z,0.30
2023-07-18T02:20:55.777Z,0.50
2023-07-18T02:21:07.776Z,0.90
2023-07-18T02:21:19.953Z,0.80
2023-07-18T02:21:32.098Z,0.60
2023-07-18T02:21:44.053Z,0.70
2023-07-18T02:21:56.027Z,0.70
2023-07-18T02:22:08.070Z,0.68
2023-07-18T02:22:22.626Z,0.45
2023-07-18T02:22:35.504Z,0.50
2023-07-18T02:22:48.935Z,0.40
2023-07-18T02:23:01.756Z,0.57
2023-07-18T02:23:13.928Z,0.70
2023-07-18T02:23:25.870Z,0.80
2023-07-18T02:23:37.873Z,0.43
2023-07-18T02:23:49.856Z,0.52
2023-07-18T02:24:01.943Z,0.70
2023-07-18T02:24:13.938Z,1.10
2023-07-18T02:24:25.860Z,0.90
2023-07-18T02:24:38.855Z,0.68
2023-07-18T02:24:50.845Z,0.60
2023-07-18T02:25:03.872Z,0.80
2023-07-18T02:25:18.148Z,0.70
2023-07-18T02:25:30.164Z,0.73
2023-07-18T02:25:42.169Z,0.85
2023-07-18T02:25:54.226Z,0.82
2023-07-18T02:26:06.161Z,0.50
2023-07-18T02:26:18.176Z,0.50
2023-07-18T02:26:30.466Z,0.60
2023-07-18T02:26:42.399Z,0.55
2023-07-18T02:26:55.234Z,0.55
2023-07-18T02:27:07.282Z,0.40
2023-07-18T02:27:20.806Z,0.32
2023-07-18T02:27:34.546Z,0.38
2023-07-18T02:27:46.699Z,1.20
2023-07-18T02:27:58.781Z,1.30
2023-07-18T02:28:11.207Z,0.57
2023-07-18T02:28:23.211Z,0.63
2023-07-18T02:28:35.193Z,0.80
2023-07-18T02:28:47.136Z,0.60
2023-07-18T02:28:59.076Z,1.38
2023-07-18T02:29:11.343Z,1.23
2023-07-18T02:29:23.353Z,0.40
2023-07-18T02:29:35.327Z,0.50
2023-07-18T02:29:47.777Z,0.57
2023-07-18T02:30:01.945Z,0.60
2023-07-18T02:30:14.959Z,0.50
2023-07-18T02:30:26.932Z,0.40
2023-07-18T02:30:39.377Z,0.40
2023-07-18T02:30:53.653Z,0.80
2023-07-18T02:31:05.723Z,0.80
2023-07-18T02:31:18.469Z,0.63
2023-07-18T02:31:30.751Z,0.60
2023-07-18T02:31:43.351Z,0.75
2023-07-18T02:31:55.339Z,0.90
2023-07-18T02:32:07.487Z,0.73
2023-07-18T02:32:19.462Z,0.43
2023-07-18T02:32:31.780Z,0.57
2023-07-18T02:32:44.800Z,1.00
2023-07-18T02:32:58.406Z,0.95
2023-07-18T02:33:11.984Z,0.60
2023-07-18T02:33:24.183Z,0.55
2023-07-18T02:33:36.264Z,0.52
2023-07-18T02:33:48.386Z,0.70
2023-07-18T02:34:00.380Z,0.50
2023-07-18T02:34:12.345Z,0.60
2023-07-18T02:34:26.550Z,0.70
2023-07-18T02:34:39.529Z,0.57
2023-07-18T02:34:51.671Z,0.50
2023-07-18T02:35:03.832Z,0.63
2023-07-18T02:35:19.432Z,0.82
2023-07-18T02:35:32.151Z,0.70
2023-07-18T02:35:49.307Z,1.90
2023-07-18T02:36:01.255Z,2.00
2023-07-18T02:36:13.270Z,0.57
2023-07-18T02:36:25.780Z,0.43
2023-07-18T02:36:37.843Z,0.40
2023-07-18T02:36:50.229Z,0.45
2023-07-18T02:37:02.195Z,0.75
2023-07-18T02:37:14.214Z,0.70
2023-07-18T02:37:26.760Z,0.60
2023-07-18T02:37:38.999Z,0.50
2023-07-18T02:37:51.013Z,0.85
2023-07-18T02:38:03.108Z,0.80
2023-07-18T02:38:15.043Z,0.50
2023-07-18T02:38:27.108Z,0.40
2023-07-18T02:38:39.138Z,0.68
2023-07-18T02:38:51.523Z,0.80
2023-07-18T02:39:04.906Z,0.70
2023-07-18T02:39:16.884Z,0.85
2023-07-18T02:39:31.464Z,0.88
2023-07-18T02:39:45.306Z,0.63
2023-07-18T02:39:57.263Z,0.50
2023-07-18T02:40:10.547Z,0.50
2023-07-18T02:40:23.171Z,0.40
2023-07-18T02:40:35.134Z,0.40
2023-07-18T02:40:47.162Z,0.40
2023-07-18T02:40:59.094Z,0.45
2023-07-18T02:41:11.041Z,0.52
2023-07-18T02:41:23.063Z,0.63
2023-07-18T02:41:35.726Z,0.70
2023-07-18T02:41:47.648Z,0.70
2023-07-18T02:41:59.812Z,0.80
2023-07-18T02:42:12.551Z,1.15
2023-07-18T02:42:24.495Z,1.70
2023-07-18T02:42:37.736Z,1.30
2023-07-18T02:42:49.834Z,0.68
2023-07-18T02:43:01.846Z,0.75
2023-07-18T02:43:13.882Z,0.98
2023-07-18T02:43:25.852Z,1.42
2023-07-18T02:43:37.786Z,1.15
2023-07-18T02:43:49.762Z,0.95
2023-07-18T02:44:01.910Z,0.52
2023-07-18T02:44:14.196Z,1.00
2023-07-18T02:44:26.125Z,1.30
2023-07-18T02:44:38.187Z,1.15
2023-07-18T02:44:50.176Z,0.73
2023-07-18T02:45:02.193Z,0.50
2023-07-18T02:45:14.742Z,0.43
2023-07-18T02:45:26.746Z,0.70
2023-07-18T02:45:38.710Z,0.57
2023-07-18T02:45:50.891Z,0.45
2023-07-18T02:46:02.873Z,1.08
2023-07-18T02:46:14.848Z,1.00
2023-07-18T02:46:26.880Z,0.40
2023-07-18T02:46:39.281Z,1.20
2023-07-18T02:46:51.374Z,1.40
2023-07-18T02:47:03.563Z,1.50
2023-07-18T02:47:15.647Z,0.98
2023-07-18T02:47:27.675Z,0.88
2023-07-18T02:47:40.644Z,0.50
2023-07-18T02:47:52.769Z,0.80
2023-07-18T02:48:05.276Z,0.70
2023-07-18T02:48:17.280Z,0.50
2023-07-18T02:48:29.232Z,0.40